Time;durP1;ratioP1;P1;durP2;ratioP2;P2;SDS_P1;SDS_P2;PMS_P1;PMS_P2;Temp;Humidity;BMP_temperature;BMP_pressure;BME280_temperature;BME280_humidity;BME280_pressure;Samples;Min_cycle;Max_cycle;Signal;HPM_P1;HPM_P2
2021/12/03 06:11:33;;;;;;;5.20;3.45;;;;;;;0.20;100.00;96712.31;1818039;78;21394;-61
2021/12/03 06:14:00;;;;;;;77.65;48.68;;;;;;;0.24;99.86;96719.16;1819571;78;21106;-61
2021/12/03 06:16:26;;;;;;;3.35;2.20;;;;;;;0.28;99.86;96718.94;1812665;78;21379;-63
2021/12/03 06:18:53;;;;;;;3.00;1.70;;;;;;;0.36;99.94;96717.92;1817540;78;20840;-60
2021/12/03 06:21:20;;;;;;;4.08;2.50;;;;;;;0.47;99.65;96717.46;1815455;78;20967;-59
2021/12/03 06:23:47;;;;;;;4.55;2.87;;;;;;;0.54;99.61;96729.33;1813269;78;20861;-61
2021/12/03 06:26:14;;;;;;;3.65;2.92;;;;;;;0.60;99.30;96729.64;1816657;78;21791;-59
2021/12/03 06:28:41;;;;;;;5.35;3.12;;;;;;;0.64;99.10;96742.56;1812380;78;21446;-60
2021/12/03 06:31:08;;;;;;;4.33;3.45;;;;;;;0.68;98.72;96750.76;1818139;78;20954;-61
2021/12/03 06:33:35;;;;;;;5.78;3.20;;;;;;;0.71;98.63;96760.77;1816569;78;20916;-59
2021/12/03 06:36:03;;;;;;;4.85;3.50;;;;;;;0.77;98.68;96765.55;1813842;78;20928;-59
2021/12/03 06:38:31;;;;;;;5.55;3.20;;;;;;;0.81;98.62;96770.05;1816743;78;21186;-57
2021/12/03 06:40:58;;;;;;;3.83;3.12;;;;;;;0.84;98.12;96776.13;1815200;78;21513;-58
2021/12/03 06:43:25;;;;;;;3.98;2.80;;;;;;;0.83;98.18;96779.80;1813740;78;21284;-62
2021/12/03 06:45:52;;;;;;;3.52;2.60;;;;;;;0.84;97.98;96783.23;1816573;78;20900;-62
2021/12/03 06:48:19;;;;;;;5.65;3.25;;;;;;;0.84;97.92;96781.40;1815123;78;20920;-59
2021/12/03 06:50:49;;;;;;;4.97;3.67;;;;;;;0.90;97.89;96779.56;1815949;78;21123;-58
2021/12/03 06:53:16;;;;;;;5.45;4.10;;;;;;;0.91;97.55;96780.64;1811262;78;21335;-58
2021/12/03 06:55:47;;;;;;;7.15;4.40;;;;;;;0.87;97.34;96788.80;1812019;78;21387;-60
2021/12/03 06:58:17;;;;;;;5.67;3.90;;;;;;;0.86;97.27;96781.94;1814102;78;20927;-58
2021/12/03 07:00:45;;;;;;;5.22;3.83;;;;;;;0.87;97.18;96792.76;1815706;78;20876;-61
2021/12/03 07:03:12;;;;;;;5.58;4.17;;;;;;;0.89;97.07;96797.25;1818067;78;21052;-61
2021/12/03 07:05:38;;;;;;;8.18;4.60;;;;;;;0.92;96.99;96798.58;1807249;78;20966;-61
2021/12/03 07:08:10;;;;;;;7.08;5.37;;;;;;;0.95;96.69;96806.75;1812378;78;20979;-60
2021/12/03 07:10:37;;;;;;;10.00;6.10;;;;;;;0.97;96.52;96799.37;1802326;79;20921;-63
2021/12/03 07:13:05;;;;;;;8.80;6.25;;;;;;;0.99;96.44;96804.41;1806963;79;20991;-60
2021/12/03 07:15:32;;;;;;;12.43;7.65;;;;;;;1.01;96.32;96807.05;1806021;79;21109;-57
2021/12/03 07:17:58;;;;;;;11.43;8.00;;;;;;;1.01;96.10;96818.92;1803691;79;20881;-61
2021/12/03 07:20:26;;;;;;;11.20;6.62;;;;;;;1.00;95.69;96816.00;1804338;79;21257;-63
2021/12/03 07:22:54;;;;;;;12.78;7.42;;;;;;;1.01;94.99;96823.39;1804300;79;21376;-61
2021/12/03 07:25:21;;;;;;;9.63;6.97;;;;;;;1.03;95.16;96827.36;1800358;79;21016;-61
2021/12/03 07:27:48;;;;;;;12.18;7.67;;;;;;;1.06;95.04;96833.42;1800626;79;21176;-61
2021/12/03 07:30:16;;;;;;;12.28;7.17;;;;;;;1.06;94.58;96835.28;1801294;79;20987;-60
2021/12/03 07:32:43;;;;;;;10.13;6.78;;;;;;;1.07;94.38;96834.22;1797013;79;20924;-62
2021/12/03 07:35:10;;;;;;;9.60;6.90;;;;;;;1.08;94.00;96839.77;1792952;79;20915;-63
2021/12/03 07:37:36;;;;;;;9.08;6.65;;;;;;;1.01;93.70;96853.72;1799674;79;20991;-62
2021/12/03 07:40:06;;;;;;;11.88;7.05;;;;;;;0.98;93.79;96856.86;1799492;79;21135;-59
2021/12/03 07:42:36;;;;;;;15.50;7.75;;;;;;;0.95;93.41;96859.48;1801532;79;21002;-63
2021/12/03 07:45:05;;;;;;;16.52;10.05;;;;;;;0.97;93.50;96863.97;1802739;79;21744;-62
2021/12/03 07:47:33;;;;;;;17.05;9.75;;;;;;;1.00;92.87;96867.42;1805005;79;21006;-65
2021/12/03 07:49:59;;;;;;;15.23;9.28;;;;;;;1.00;92.82;96856.88;1804024;79;21460;-64
2021/12/03 07:52:26;;;;;;;13.22;8.20;;;;;;;0.98;92.73;96870.84;1804009;79;21114;-62
2021/12/03 07:54:52;;;;;;;14.23;9.20;;;;;;;0.98;92.42;96876.63;1807177;79;20900;-61
2021/12/03 07:57:18;;;;;;;12.93;8.83;;;;;;;0.95;92.10;96875.30;1803368;79;21433;-64
2021/12/03 07:59:45;;;;;;;14.75;10.35;;;;;;;0.95;92.35;96877.94;1805446;79;20992;-66
2021/12/03 08:02:12;;;;;;;16.20;9.40;;;;;;;0.96;92.31;96884.01;1804810;79;20987;-59
2021/12/03 08:04:38;;;;;;;12.98;8.85;;;;;;;0.98;92.03;96885.34;1801231;79;21080;-59
2021/12/03 08:07:05;;;;;;;12.23;8.00;;;;;;;1.01;92.07;96892.75;1801226;79;20985;-63
2021/12/03 08:09:32;;;;;;;14.85;8.23;;;;;;;1.01;91.97;96890.12;1805273;79;21380;-62
2021/12/03 08:11:59;;;;;;;13.38;8.88;;;;;;;1.05;92.13;96891.19;1807338;79;20952;-60
2021/12/03 08:14:25;;;;;;;13.30;8.13;;;;;;;1.11;92.21;96907.80;1807330;79;20976;-59
2021/12/03 08:16:52;;;;;;;12.20;8.03;;;;;;;1.17;91.91;96904.96;1804396;79;21719;-65
2021/12/03 08:19:19;;;;;;;11.78;9.40;;;;;;;1.19;91.95;96908.66;1804383;79;21042;-61
2021/12/03 08:21:45;;;;;;;8.68;6.75;;;;;;;1.25;91.93;96921.61;1805009;79;20912;-63
2021/12/03 08:24:12;;;;;;;8.83;6.42;;;;;;;1.28;91.52;96917.14;1804893;79;20945;-63
2021/12/03 08:26:39;;;;;;;11.45;7.47;;;;;;;1.27;91.11;96923.45;1794189;79;20998;-62
2021/12/03 08:29:06;;;;;;;11.80;7.37;;;;;;;1.25;91.21;96925.56;1797434;79;21041;-62
2021/12/03 08:31:33;;;;;;;12.50;8.13;;;;;;;1.27;91.10;96941.92;1798421;79;20959;-64
2021/12/03 08:33:59;;;;;;;17.95;8.80;;;;;;;1.25;90.69;96940.07;1799231;79;20972;-60
2021/12/03 08:36:26;;;;;;;13.58;7.67;;;;;;;1.25;90.72;96945.34;1803054;79;20932;-58
2021/12/03 08:38:52;;;;;;;12.75;7.53;;;;;;;1.23;90.67;96943.49;1806099;79;20960;-58
2021/12/03 08:41:19;;;;;;;11.80;7.45;;;;;;;1.24;90.64;96949.56;1804681;79;21442;-63
2021/12/03 08:43:48;;;;;;;13.20;7.80;;;;;;;1.23;90.59;96950.61;1800414;79;21100;-64
2021/12/03 08:46:27;;;;;;;9.88;7.30;;;;;;;1.21;90.51;96949.55;1800955;79;21083;-61
2021/12/03 08:48:48;;;;;;;10.65;7.30;;;;;;;1.20;90.30;96947.95;1801149;79;20896;-59
2021/12/03 08:51:32;;;;;;;10.18;7.28;;;;;;;1.21;90.26;96953.52;1803890;79;20979;-61
2021/12/03 08:56:38;;;;;;;12.95;7.90;;;;;;;1.30;90.37;96956.45;1807523;79;21040;-62
2021/12/03 08:59:05;;;;;;;11.68;8.10;;;;;;;1.35;89.92;96956.48;1787193;79;20912;-62
2021/12/03 09:01:31;;;;;;;11.48;7.53;;;;;;;1.35;89.66;96966.52;1803001;79;20979;-61
2021/12/03 09:03:58;;;;;;;10.90;7.42;;;;;;;1.35;89.57;96955.95;1803814;79;20967;-62
2021/12/03 09:06:26;;;;;;;12.43;7.45;;;;;;;1.39;89.34;96962.30;1778361;79;21134;-62
2021/12/03 09:08:53;;;;;;;8.65;7.78;;;;;;;1.38;89.32;96966.01;1812357;79;21368;-63
2021/12/03 09:11:20;;;;;;;12.85;8.55;;;;;;;1.39;88.85;96965.46;1817360;78;20860;-63
2021/12/03 09:13:50;;;;;;;11.60;8.05;;;;;;;1.45;88.75;96976.84;1816935;79;20916;-58
2021/12/03 09:16:20;;;;;;;12.13;8.33;;;;;;;1.43;88.43;96973.67;1812913;79;21463;-64
2021/12/03 09:18:49;;;;;;;11.85;8.18;;;;;;;1.39;88.16;96976.81;1805075;79;21059;-60
2021/12/03 09:21:23;;;;;;;10.43;8.28;;;;;;;1.37;88.36;96982.87;1790473;79;20987;-62
2021/12/03 09:26:26;;;;;;;13.50;8.58;;;;;;;1.37;88.05;96982.87;1804696;78;20925;-59
2021/12/03 09:29:00;;;;;;;12.85;8.33;;;;;;;1.42;88.03;96985.27;1803379;79;21064;-60
2021/12/03 09:31:22;;;;;;;12.55;8.85;;;;;;;1.47;87.89;96980.02;1802811;78;21098;-60
2021/12/03 09:33:50;;;;;;;10.75;7.87;;;;;;;1.49;87.89;96979.23;1798648;78;21020;-60
2021/12/03 09:36:17;;;;;;;11.75;8.03;;;;;;;1.48;87.70;96976.34;1807734;79;20923;-61
2021/12/03 09:38:52;;;;;;;12.05;8.08;;;;;;;1.50;87.49;96978.20;1807145;79;20920;-64
2021/12/03 09:41:20;;;;;;;14.70;8.95;;;;;;;1.48;86.94;96976.34;1809519;79;21042;-61
2021/12/03 09:43:50;;;;;;;13.00;8.43;;;;;;;1.41;87.25;96970.50;1797907;79;21105;-61
2021/12/03 09:46:23;;;;;;;10.40;7.58;;;;;;;1.44;87.21;96966.04;1809834;79;21015;-63
2021/12/03 09:51:18;;;;;;;13.48;8.63;;;;;;;1.39;87.10;96989.20;1807595;78;21099;-60
2021/12/03 09:56:12;;;;;;;12.20;7.67;;;;;;;1.35;86.90;96985.50;1804942;79;21090;-62
2021/12/03 10:01:35;;;;;;;13.00;8.00;;;;;;;1.33;87.51;96976.53;1807005;78;21015;-62
2021/12/03 10:07:58;;;;;;;11.33;7.08;;;;;;;1.40;86.83;96974.98;1784050;78;21113;-60
2021/12/03 10:14:50;;;;;;;10.60;6.65;;;;;;;1.38;86.98;97001.62;1816433;78;20965;-61
2021/12/03 10:20:18;;;;;;;10.10;6.55;;;;;;;1.42;86.38;97005.05;1804033;79;21078;-61
2021/12/03 10:25:52;;;;;;;9.75;6.60;;;;;;;1.31;86.56;97018.73;1810426;78;21651;-64
2021/12/03 10:28:17;;;;;;;10.93;6.62;;;;;;;1.30;86.58;97012.66;1797835;78;21031;-62
2021/12/03 10:31:04;;;;;;;11.50;6.58;;;;;;;1.33;86.85;97025.34;1803049;78;21010;-62
2021/12/03 10:41:37;;;;;;;10.32;6.17;;;;;;;1.26;86.32;97037.95;1760472;81;21435;-61
2021/12/03 10:44:14;;;;;;;11.75;6.55;;;;;;;1.25;86.18;97039.52;1807814;79;20945;-63
2021/12/03 10:46:52;;;;;;;14.58;7.83;;;;;;;1.25;86.41;97045.59;1812906;78;20895;-60
2021/12/03 10:52:21;;;;;;;11.35;7.37;;;;;;;1.26;86.39;97047.20;1804078;78;20966;-65
2021/12/03 11:36:16;;;;;;;11.30;7.47;;;;;;;0.98;86.82;97072.56;1801667;79;20981;-63
2021/12/03 12:35:50;;;;;;;14.98;8.88;;;;;;;0.77;87.13;97139.33;1800546;79;21639;-57
2021/12/03 13:13:44;;;;;;;12.95;8.30;;;;;;;0.70;86.29;97200.67;1767136;80;21019;-61
2021/12/03 13:24:42;;;;;;;10.35;7.78;;;;;;;0.50;86.56;97205.69;1765613;80;21006;-63
2021/12/03 14:23:38;;;;;;;15.43;9.23;;;;;;;-0.02;87.71;97277.14;1790770;79;21157;-57
2021/12/03 14:40:49;;;;;;;13.55;9.38;;;;;;;-0.23;87.79;97288.90;1801355;79;20923;-61
